sensor_id;sensor_type;location;lat;lon;timestamp;pressure;altitude;pressure_sealevel;temperature;humidity
6393;BME280;3229;42.674;23.282;2023-07-02T00:01:45;94037.63;;;19.80;88.97
6393;BME280;3229;42.674;23.282;2023-07-02T00:04:12;94039.03;;;19.76;88.84
6393;BME280;3229;42.674;23.282;2023-07-02T00:06:43;93968.47;;;19.36;88.80
6393;BME280;3229;42.674;23.282;2023-07-02T00:09:09;94034.00;;;19.81;89.59
6393;BME280;3229;42.674;23.282;2023-07-02T00:11:37;94030.09;;;19.72;89.57
6393;BME280;3229;42.674;23.282;2023-07-02T00:14:04;94034.47;;;19.71;89.73
6393;BME280;3229;42.674;23.282;2023-07-02T00:16:31;93982.59;;;19.40;89.76
6393;BME280;3229;42.674;23.282;2023-07-02T00:18:58;94020.41;;;19.61;90.43
6393;BME280;3229;42.674;23.282;2023-07-02T00:21:25;94016.78;;;19.62;90.49
6393;BME280;3229;42.674;23.282;2023-07-02T00:23:55;94013.41;;;19.61;90.50
6393;BME280;3229;42.674;23.282;2023-07-02T00:26:23;94020.78;;;19.58;90.86
6393;BME280;3229;42.674;23.282;2023-07-02T00:28:50;94027.97;;;19.55;90.63
6393;BME280;3229;42.674;23.282;2023-07-02T00:31:17;94021.34;;;19.60;90.86
6393;BME280;3229;42.674;23.282;2023-07-02T00:33:44;94034.75;;;19.57;90.80
6393;BME280;3229;42.674;23.282;2023-07-02T00:36:10;94041.94;;;19.54;91.11
6393;BME280;3229;42.674;23.282;2023-07-02T00:38:40;94029.38;;;19.51;91.26
6393;BME280;3229;42.674;23.282;2023-07-02T00:41:10;94041.53;;;19.58;91.53
6393;BME280;3229;42.674;23.282;2023-07-02T00:43:37;94044.75;;;19.53;91.60
6393;BME280;3229;42.674;23.282;2023-07-02T00:46:09;94040.13;;;19.55;91.52
6393;BME280;3229;42.674;23.282;2023-07-02T00:48:38;94038.59;;;19.47;91.91
6393;BME280;3229;42.674;23.282;2023-07-02T00:51:05;94044.91;;;19.58;92.26
6393;BME280;3229;42.674;23.282;2023-07-02T00:53:32;94035.16;;;19.53;91.87
6393;BME280;3229;42.674;23.282;2023-07-02T00:55:59;94045.72;;;19.59;91.87
6393;BME280;3229;42.674;23.282;2023-07-02T00:58:27;94010.09;;;19.47;91.49
6393;BME280;3229;42.674;23.282;2023-07-02T01:00:54;94018.19;;;19.58;91.92
6393;BME280;3229;42.674;23.282;2023-07-02T01:03:22;94027.16;;;19.62;91.82
6393;BME280;3229;42.674;23.282;2023-07-02T01:05:48;94023.38;;;19.58;91.96
6393;BME280;3229;42.674;23.282;2023-07-02T01:08:15;94013.09;;;19.44;92.31
6393;BME280;3229;42.674;23.282;2023-07-02T01:10:42;94020.47;;;19.41;92.29
6393;BME280;3229;42.674;23.282;2023-07-02T01:13:14;94025.25;;;19.44;92.87
6393;BME280;3229;42.674;23.282;2023-07-02T01:15:44;94023.44;;;19.44;93.24
6393;BME280;3229;42.674;23.282;2023-07-02T01:18:12;94031.00;;;19.46;93.27
6393;BME280;3229;42.674;23.282;2023-07-02T01:20:42;94019.69;;;19.40;93.48
6393;BME280;3229;42.674;23.282;2023-07-02T01:23:09;94015.13;;;19.36;93.60
6393;BME280;3229;42.674;23.282;2023-07-02T01:25:36;93992.41;;;19.31;93.77
6393;BME280;3229;42.674;23.282;2023-07-02T01:28:03;94001.78;;;19.32;93.59
6393;BME280;3229;42.674;23.282;2023-07-02T01:30:30;93997.44;;;19.26;94.37
6393;BME280;3229;42.674;23.282;2023-07-02T01:32:57;94000.03;;;19.26;94.52
6393;BME280;3229;42.674;23.282;2023-07-02T01:35:24;94002.41;;;19.27;94.50
6393;BME280;3229;42.674;23.282;2023-07-02T01:37:52;94002.25;;;19.22;95.21
6393;BME280;3229;42.674;23.282;2023-07-02T01:40:19;94008.63;;;19.20;95.18
6393;BME280;3229;42.674;23.282;2023-07-02T01:42:45;94009.19;;;19.28;95.12
6393;BME280;3229;42.674;23.282;2023-07-02T01:45:12;94002.03;;;19.24;96.30
6393;BME280;3229;42.674;23.282;2023-07-02T01:47:39;94006.41;;;19.23;96.73
6393;BME280;3229;42.674;23.282;2023-07-02T01:50:06;94013.78;;;19.26;97.06
6393;BME280;3229;42.674;23.282;2023-07-02T01:52:33;94002.78;;;19.31;97.10
6393;BME280;3229;42.674;23.282;2023-07-02T01:55:02;93997.38;;;19.39;97.66
6393;BME280;3229;42.674;23.282;2023-07-02T01:57:29;93996.03;;;19.30;98.07
6393;BME280;3229;42.674;23.282;2023-07-02T01:59:56;94002.78;;;19.31;97.79
6393;BME280;3229;42.674;23.282;2023-07-02T02:02:23;93979.63;;;19.36;97.88
6393;BME280;3229;42.674;23.282;2023-07-02T02:04:50;93974.66;;;19.35;98.46
6393;BME280;3229;42.674;23.282;2023-07-02T02:07:17;93999.56;;;19.36;98.19
6393;BME280;3229;42.674;23.282;2023-07-02T02:09:44;93984.03;;;19.29;98.19
6393;BME280;3229;42.674;23.282;2023-07-02T02:12:12;93987.19;;;19.38;97.83
6393;BME280;3229;42.674;23.282;2023-07-02T02:14:40;93991.97;;;19.34;97.73
6393;BME280;3229;42.674;23.282;2023-07-02T02:17:07;93980.41;;;19.37;97.90
6393;BME280;3229;42.674;23.282;2023-07-02T02:19:34;93985.81;;;19.35;98.20
6393;BME280;3229;42.674;23.282;2023-07-02T02:22:00;93981.03;;;19.32;98.29
6393;BME280;3229;42.674;23.282;2023-07-02T02:24:28;93971.06;;;19.29;98.09
6393;BME280;3229;42.674;23.282;2023-07-02T02:26:55;93978.47;;;19.25;98.25
6393;BME280;3229;42.674;23.282;2023-07-02T02:29:23;93966.75;;;19.23;98.18
6393;BME280;3229;42.674;23.282;2023-07-02T02:31:50;93956.59;;;19.21;98.25
6393;BME280;3229;42.674;23.282;2023-07-02T02:34:16;93967.94;;;19.20;99.27
6393;BME280;3229;42.674;23.282;2023-07-02T02:36:43;93970.53;;;19.20;99.26
6393;BME280;3229;42.674;23.282;2023-07-02T02:39:10;93967.38;;;19.18;99.93
6393;BME280;3229;42.674;23.282;2023-07-02T02:41:37;93961.16;;;19.19;100.00
6393;BME280;3229;42.674;23.282;2023-07-02T02:44:04;93956.06;;;19.06;100.00
6393;BME280;3229;42.674;23.282;2023-07-02T02:46:32;93961.66;;;19.03;100.00
6393;BME280;3229;42.674;23.282;2023-07-02T02:48:59;93971.44;;;19.01;99.84
6393;BME280;3229;42.674;23.282;2023-07-02T02:51:25;93988.78;;;19.00;99.44
6393;BME280;3229;42.674;23.282;2023-07-02T02:53:52;93991.19;;;18.95;99.14
6393;BME280;3229;42.674;23.282;2023-07-02T02:56:19;93991.41;;;18.94;99.32
6393;BME280;3229;42.674;23.282;2023-07-02T02:58:46;93992.97;;;18.95;98.75
6393;BME280;3229;42.674;23.282;2023-07-02T03:01:12;93982.03;;;18.93;98.16
6393;BME280;3229;42.674;23.282;2023-07-02T03:03:42;93985.03;;;18.96;97.55
6393;BME280;3229;42.674;23.282;2023-07-02T03:06:11;93989.41;;;18.96;96.91
6393;BME280;3229;42.674;23.282;2023-07-02T03:08:39;93968.28;;;18.92;96.53
6393;BME280;3229;42.674;23.282;2023-07-02T03:11:06;93965.31;;;18.89;96.62
6393;BME280;3229;42.674;23.282;2023-07-02T03:13:32;93980.63;;;18.97;96.67
6393;BME280;3229;42.674;23.282;2023-07-02T03:15:59;93976.63;;;19.01;96.30
6393;BME280;3229;42.674;23.282;2023-07-02T03:18:26;93983.78;;;19.05;96.48
6393;BME280;3229;42.674;23.282;2023-07-02T03:20:54;93988.56;;;19.09;96.57
6393;BME280;3229;42.674;23.282;2023-07-02T03:23:21;94004.06;;;19.15;95.92
6393;BME280;3229;42.674;23.282;2023-07-02T03:25:48;94017.56;;;19.24;95.74
6393;BME280;3229;42.674;23.282;2023-07-02T03:28:15;94016.16;;;19.28;95.43
6393;BME280;3229;42.674;23.282;2023-07-02T03:30:41;94003.41;;;19.26;95.36
6393;BME280;3229;42.674;23.282;2023-07-02T03:33:08;94017.91;;;19.34;95.22
6393;BME280;3229;42.674;23.282;2023-07-02T03:35:35;94012.47;;;19.42;94.69
6393;BME280;3229;42.674;23.282;2023-07-02T03:38:04;94009.06;;;19.48;94.46
6393;BME280;3229;42.674;23.282;2023-07-02T03:40:31;94011.03;;;19.53;94.33
6393;BME280;3229;42.674;23.282;2023-07-02T03:42:58;94008.38;;;19.60;94.84
6393;BME280;3229;42.674;23.282;2023-07-02T03:45:25;94007.38;;;19.67;94.56
6393;BME280;3229;42.674;23.282;2023-07-02T03:47:51;93998.75;;;19.73;94.41
6393;BME280;3229;42.674;23.282;2023-07-02T03:50:18;93999.94;;;19.77;94.36
6393;BME280;3229;42.674;23.282;2023-07-02T03:52:45;93999.94;;;19.77;93.74
6393;BME280;3229;42.674;23.282;2023-07-02T03:55:14;93997.69;;;19.81;93.72
6393;BME280;3229;42.674;23.282;2023-07-02T03:57:40;93996.69;;;19.82;93.42
6393;BME280;3229;42.674;23.282;2023-07-02T04:00:08;93995.69;;;19.83;92.81
6393;BME280;3229;42.674;23.282;2023-07-02T04:02:36;93996.22;;;19.92;93.08
6393;BME280;3229;42.674;23.282;2023-07-02T04:05:04;93995.47;;;19.85;93.57
6393;BME280;3229;42.674;23.282;2023-07-02T04:07:31;93997.00;;;19.92;93.74
6393;BME280;3229;42.674;23.282;2023-07-02T04:09:58;93990.63;;;19.95;93.65
6393;BME280;3229;42.674;23.282;2023-07-02T04:12:26;93982.97;;;19.75;93.67
6393;BME280;3229;42.674;23.282;2023-07-02T04:14:53;93979.59;;;19.74;93.56
6393;BME280;3229;42.674;23.282;2023-07-02T04:17:20;94015.56;;;19.96;93.15
6393;BME280;3229;42.674;23.282;2023-07-02T04:19:47;94021.38;;;19.91;93.19
6393;BME280;3229;42.674;23.282;2023-07-02T04:22:14;94021.75;;;19.95;92.83
6393;BME280;3229;42.674;23.282;2023-07-02T04:24:41;94030.34;;;19.95;92.17
6393;BME280;3229;42.674;23.282;2023-07-02T04:27:07;94030.91;;;19.97;91.76
6393;BME280;3229;42.674;23.282;2023-07-02T04:29:35;93965.78;;;19.49;91.48
6393;BME280;3229;42.674;23.282;2023-07-02T04:32:02;94039.47;;;19.98;91.64
6393;BME280;3229;42.674;23.282;2023-07-02T04:34:29;94040.72;;;19.95;91.98
6393;BME280;3229;42.674;23.282;2023-07-02T04:36:56;94050.00;;;20.03;91.49
6393;BME280;3229;42.674;23.282;2023-07-02T04:39:23;94065.81;;;20.01;91.21
6393;BME280;3229;42.674;23.282;2023-07-02T04:41:50;94064.41;;;19.99;91.16
6393;BME280;3229;42.674;23.282;2023-07-02T04:44:18;94063.63;;;19.98;91.05
6393;BME280;3229;42.674;23.282;2023-07-02T04:46:47;94059.81;;;20.01;91.27
6393;BME280;3229;42.674;23.282;2023-07-02T04:49:15;94053.78;;;20.07;91.22
6393;BME280;3229;42.674;23.282;2023-07-02T04:51:42;94058.16;;;20.13;90.35
6393;BME280;3229;42.674;23.282;2023-07-02T04:54:08;94062.88;;;20.16;88.83
6393;BME280;3229;42.674;23.282;2023-07-02T04:56:35;94068.91;;;20.17;88.72
6393;BME280;3229;42.674;23.282;2023-07-02T04:59:02;94062.88;;;20.16;88.40
6393;BME280;3229;42.674;23.282;2023-07-02T05:01:29;94068.03;;;20.23;88.15
6393;BME280;3229;42.674;23.282;2023-07-02T05:03:57;94068.91;;;20.17;88.43
6393;BME280;3229;42.674;23.282;2023-07-02T05:06:24;94065.66;;;20.21;87.91
6393;BME280;3229;42.674;23.282;2023-07-02T05:08:50;94056.72;;;20.17;87.79
6393;BME280;3229;42.674;23.282;2023-07-02T05:11:18;94076.13;;;20.33;87.37
6393;BME280;3229;42.674;23.282;2023-07-02T05:13:44;94072.38;;;20.29;87.46
6393;BME280;3229;42.674;23.282;2023-07-02T05:16:11;94067.63;;;20.26;87.14
6393;BME280;3229;42.674;23.282;2023-07-02T05:18:38;94077.94;;;20.33;87.32
6393;BME280;3229;42.674;23.282;2023-07-02T05:21:06;94081.19;;;20.28;87.61
6393;BME280;3229;42.674;23.282;2023-07-02T05:23:33;94078.53;;;20.35;87.67
6393;BME280;3229;42.674;23.282;2023-07-02T05:26:01;94044.53;;;20.18;87.24
6393;BME280;3229;42.674;23.282;2023-07-02T05:28:28;94072.47;;;20.41;87.20
6393;BME280;3229;42.674;23.282;2023-07-02T05:30:54;94073.88;;;20.43;87.38
6393;BME280;3229;42.674;23.282;2023-07-02T05:33:21;94068.63;;;20.50;87.50
6393;BME280;3229;42.674;23.282;2023-07-02T05:35:48;93953.75;;;19.86;86.77
6393;BME280;3229;42.674;23.282;2023-07-02T05:38:17;94068.97;;;20.60;86.57
6393;BME280;3229;42.674;23.282;2023-07-02T05:40:45;94081.16;;;20.78;86.02
6393;BME280;3229;42.674;23.282;2023-07-02T05:43:11;94082.47;;;20.87;85.55
6393;BME280;3229;42.674;23.282;2023-07-02T05:45:38;94086.59;;;20.95;85.21
6393;BME280;3229;42.674;23.282;2023-07-02T05:48:05;94089.91;;;21.02;85.04
6393;BME280;3229;42.674;23.282;2023-07-02T05:50:32;94090.69;;;21.02;85.11
6393;BME280;3229;42.674;23.282;2023-07-02T05:52:59;94079.72;;;21.00;84.76
6393;BME280;3229;42.674;23.282;2023-07-02T05:55:27;94083.63;;;21.10;84.83
6393;BME280;3229;42.674;23.282;2023-07-02T05:57:54;94096.69;;;21.21;84.83
6393;BME280;3229;42.674;23.282;2023-07-02T06:00:23;94018.22;;;20.76;84.58
6393;BME280;3229;42.674;23.282;2023-07-02T06:02:49;94090.19;;;21.30;83.89
6393;BME280;3229;42.674;23.282;2023-07-02T06:05:16;94085.56;;;21.51;82.86
6393;BME280;3229;42.674;23.282;2023-07-02T06:07:43;94090.19;;;21.79;81.87
6393;BME280;3229;42.674;23.282;2023-07-02T06:10:10;94086.84;;;22.02;80.92
6393;BME280;3229;42.674;23.282;2023-07-02T06:12:38;94085.53;;;22.11;80.07
6393;BME280;3229;42.674;23.282;2023-07-02T06:15:06;94060.38;;;22.05;79.88
6393;BME280;3229;42.674;23.282;2023-07-02T06:17:33;94069.03;;;22.17;79.92
6393;BME280;3229;42.674;23.282;2023-07-02T06:19:59;94076.84;;;22.17;79.35
6393;BME280;3229;42.674;23.282;2023-07-02T06:22:26;94070.00;;;22.04;79.95
6393;BME280;3229;42.674;23.282;2023-07-02T06:24:53;94063.69;;;22.12;80.57
6393;BME280;3229;42.674;23.282;2023-07-02T06:27:20;94068.13;;;22.23;80.49
6393;BME280;3229;42.674;23.282;2023-07-02T06:29:48;94057.25;;;22.26;79.55
6393;BME280;3229;42.674;23.282;2023-07-02T06:32:15;94059.88;;;22.38;78.62
6393;BME280;3229;42.674;23.282;2023-07-02T06:34:41;94052.88;;;22.50;78.35
6393;BME280;3229;42.674;23.282;2023-07-02T06:37:08;94065.22;;;22.67;77.96
6393;BME280;3229;42.674;23.282;2023-07-02T06:39:35;94055.00;;;22.77;77.20
6393;BME280;3229;42.674;23.282;2023-07-02T06:42:02;94058.16;;;23.02;76.53
6393;BME280;3229;42.674;23.282;2023-07-02T06:44:29;94057.06;;;23.27;74.65
6393;BME280;3229;42.674;23.282;2023-07-02T06:46:57;94053.19;;;23.41;73.90
6393;BME280;3229;42.674;23.282;2023-07-02T06:49:24;94057.00;;;23.50;73.83
6393;BME280;3229;42.674;23.282;2023-07-02T06:51:51;94055.84;;;23.58;74.06
6393;BME280;3229;42.674;23.282;2023-07-02T06:54:17;94051.84;;;23.67;73.49
6393;BME280;3229;42.674;23.282;2023-07-02T06:56:44;94055.34;;;23.73;73.63
6393;BME280;3229;42.674;23.282;2023-07-02T06:59:11;94057.56;;;23.81;73.66
6393;BME280;3229;42.674;23.282;2023-07-02T07:01:38;94063.91;;;23.85;72.99
6393;BME280;3229;42.674;23.282;2023-07-02T07:04:06;94059.22;;;23.87;73.34
6393;BME280;3229;42.674;23.282;2023-07-02T07:06:33;94067.88;;;24.04;71.94
6393;BME280;3229;42.674;23.282;2023-07-02T07:08:59;94067.88;;;24.21;71.80
6393;BME280;3229;42.674;23.282;2023-07-02T07:11:26;94074.72;;;24.39;71.84
6393;BME280;3229;42.674;23.282;2023-07-02T07:13:53;94071.25;;;24.50;70.55
6393;BME280;3229;42.674;23.282;2023-07-02T07:16:20;94057.84;;;24.64;70.05
6393;BME280;3229;42.674;23.282;2023-07-02T07:18:47;94060.09;;;24.77;69.77
6393;BME280;3229;42.674;23.282;2023-07-02T07:21:15;94063.19;;;24.74;69.62
6393;BME280;3229;42.674;23.282;2023-07-02T07:23:42;94052.50;;;24.75;69.71
6393;BME280;3229;42.674;23.282;2023-07-02T07:26:09;94068.03;;;25.04;70.01
6393;BME280;3229;42.674;23.282;2023-07-02T07:28:35;94053.25;;;25.32;68.10
6393;BME280;3229;42.674;23.282;2023-07-02T07:31:02;94065.47;;;25.48;66.73
6393;BME280;3229;42.674;23.282;2023-07-02T07:33:29;94061.84;;;25.54;66.18
6393;BME280;3229;42.674;23.282;2023-07-02T07:35:56;94059.84;;;25.61;65.79
6393;BME280;3229;42.674;23.282;2023-07-02T07:38:24;94058.50;;;25.59;65.84
6393;BME280;3229;42.674;23.282;2023-07-02T07:40:51;94038.19;;;25.44;65.86
6393;BME280;3229;42.674;23.282;2023-07-02T07:43:18;94046.31;;;25.47;65.81
6393;BME280;3229;42.674;23.282;2023-07-02T07:45:45;94046.88;;;25.49;66.08
6393;BME280;3229;42.674;23.282;2023-07-02T07:48:11;94059.50;;;25.52;66.38
6393;BME280;3229;42.674;23.282;2023-07-02T07:50:38;94061.69;;;25.88;65.39
6393;BME280;3229;42.674;23.282;2023-07-02T07:53:05;94052.94;;;26.41;63.68
6393;BME280;3229;42.674;23.282;2023-07-02T07:55:33;94065.94;;;27.00;61.65
6393;BME280;3229;42.674;23.282;2023-07-02T07:58:00;94061.69;;;27.47;59.62
6393;BME280;3229;42.674;23.282;2023-07-02T08:00:26;94068.13;;;27.82;58.12
6393;BME280;3229;42.674;23.282;2023-07-02T08:02:53;94064.72;;;27.91;56.65
6393;BME280;3229;42.674;23.282;2023-07-02T08:05:21;94070.25;;;28.00;57.20
6393;BME280;3229;42.674;23.282;2023-07-02T08:07:48;94068.66;;;28.14;56.56
6393;BME280;3229;42.674;23.282;2023-07-02T08:10:15;94062.94;;;28.38;56.48
6393;BME280;3229;42.674;23.282;2023-07-02T08:12:43;94070.78;;;28.58;55.47
6393;BME280;3229;42.674;23.282;2023-07-02T08:15:11;94068.66;;;28.86;54.02
6393;BME280;3229;42.674;23.282;2023-07-02T08:17:37;94069.41;;;29.02;54.12
6393;BME280;3229;42.674;23.282;2023-07-02T08:20:05;94054.66;;;29.06;53.84
6393;BME280;3229;42.674;23.282;2023-07-02T08:22:34;94064.63;;;29.19;53.30
6393;BME280;3229;42.674;23.282;2023-07-02T08:25:01;94062.22;;;29.33;52.46
6393;BME280;3229;42.674;23.282;2023-07-02T08:27:28;94062.09;;;29.53;52.66
6393;BME280;3229;42.674;23.282;2023-07-02T08:29:56;94063.38;;;29.66;51.89
6393;BME280;3229;42.674;23.282;2023-07-02T08:32:23;94058.16;;;29.56;52.45
6393;BME280;3229;42.674;23.282;2023-07-02T08:34:50;94052.34;;;29.64;52.27
6393;BME280;3229;42.674;23.282;2023-07-02T08:37:17;94059.84;;;29.86;52.17
6393;BME280;3229;42.674;23.282;2023-07-02T08:39:44;94064.00;;;29.92;51.40
6393;BME280;3229;42.674;23.282;2023-07-02T08:42:10;94051.44;;;29.84;51.23
6393;BME280;3229;42.674;23.282;2023-07-02T08:44:37;94062.22;;;29.82;51.41
6393;BME280;3229;42.674;23.282;2023-07-02T08:47:06;94062.41;;;29.96;51.43
6393;BME280;3229;42.674;23.282;2023-07-02T08:49:33;94060.06;;;29.94;50.96
6393;BME280;3229;42.674;23.282;2023-07-02T08:52:00;94052.03;;;29.70;50.86
6393;BME280;3229;42.674;23.282;2023-07-02T08:54:27;94060.53;;;29.57;51.51
6393;BME280;3229;42.674;23.282;2023-07-02T08:56:54;94051.09;;;29.46;52.20
6393;BME280;3229;42.674;23.282;2023-07-02T08:59:21;94038.81;;;29.21;52.23
6393;BME280;3229;42.674;23.282;2023-07-02T09:01:49;94050.38;;;29.25;52.01
6393;BME280;3229;42.674;23.282;2023-07-02T09:04:18;94039.09;;;29.14;52.02
6393;BME280;3229;42.674;23.282;2023-07-02T09:06:46;94052.03;;;29.06;52.45
6393;BME280;3229;42.674;23.282;2023-07-02T09:09:13;94048.63;;;29.00;53.31
6393;BME280;3229;42.674;23.282;2023-07-02T09:11:47;94050.97;;;29.12;54.04
6393;BME280;3229;42.674;23.282;2023-07-02T09:14:24;94044.81;;;29.32;52.95
6393;BME280;3229;42.674;23.282;2023-07-02T09:17:04;94023.94;;;29.45;52.20
6393;BME280;3229;42.674;23.282;2023-07-02T09:19:33;94048.34;;;29.71;52.14
6393;BME280;3229;42.674;23.282;2023-07-02T09:22:00;94041.47;;;29.70;52.27
6393;BME280;3229;42.674;23.282;2023-07-02T09:24:28;94037.28;;;29.69;52.54
6393;BME280;3229;42.674;23.282;2023-07-02T09:26:57;94033.63;;;29.60;52.65
6393;BME280;3229;42.674;23.282;2023-07-02T09:29:26;94042.84;;;29.63;52.15
6393;BME280;3229;42.674;23.282;2023-07-02T09:31:54;94028.66;;;29.48;52.45
6393;BME280;3229;42.674;23.282;2023-07-02T09:34:27;94047.88;;;29.54;52.10
6393;BME280;3229;42.674;23.282;2023-07-02T09:36:56;94040.78;;;29.44;52.27
6393;BME280;3229;42.674;23.282;2023-07-02T09:39:26;94036.28;;;29.55;52.28
6393;BME280;3229;42.674;23.282;2023-07-02T09:41:54;94035.00;;;29.47;52.28
6393;BME280;3229;42.674;23.282;2023-07-02T09:44:22;94036.63;;;29.38;52.86
6393;BME280;3229;42.674;23.282;2023-07-02T09:46:53;94034.81;;;29.34;53.21
6393;BME280;3229;42.674;23.282;2023-07-02T09:49:22;94033.16;;;29.48;52.42
6393;BME280;3229;42.674;23.282;2023-07-02T09:51:50;94026.28;;;29.52;51.87
6393;BME280;3229;42.674;23.282;2023-07-02T09:54:18;94025.56;;;29.41;51.99
6393;BME280;3229;42.674;23.282;2023-07-02T09:56:46;94014.38;;;29.05;52.15
6393;BME280;3229;42.674;23.282;2023-07-02T09:59:13;94026.50;;;29.01;52.86
6393;BME280;3229;42.674;23.282;2023-07-02T10:01:40;94025.19;;;29.04;53.66
6393;BME280;3229;42.674;23.282;2023-07-02T10:04:12;94023.34;;;29.04;52.96
6393;BME280;3229;42.674;23.282;2023-07-02T10:06:46;94019.88;;;29.09;52.72
6393;BME280;3229;42.674;23.282;2023-07-02T10:09:12;94022.19;;;29.25;52.62
6393;BME280;3229;42.674;23.282;2023-07-02T10:11:41;94021.38;;;29.30;52.69
6393;BME280;3229;42.674;23.282;2023-07-02T10:14:08;94013.78;;;29.18;51.85
6393;BME280;3229;42.674;23.282;2023-07-02T10:16:48;94001.19;;;29.05;52.63
6393;BME280;3229;42.674;23.282;2023-07-02T10:19:16;94007.81;;;28.87;52.87
6393;BME280;3229;42.674;23.282;2023-07-02T10:21:42;93987.63;;;28.72;52.99
6393;BME280;3229;42.674;23.282;2023-07-02T10:24:12;93987.03;;;28.86;53.60
6393;BME280;3229;42.674;23.282;2023-07-02T10:26:39;93994.38;;;28.94;53.07
6393;BME280;3229;42.674;23.282;2023-07-02T10:29:07;93986.78;;;28.97;52.68
6393;BME280;3229;42.674;23.282;2023-07-02T10:31:34;93989.69;;;28.81;52.86
6393;BME280;3229;42.674;23.282;2023-07-02T10:34:02;93993.41;;;28.69;52.97
6393;BME280;3229;42.674;23.282;2023-07-02T10:36:29;93997.94;;;28.48;54.25
6393;BME280;3229;42.674;23.282;2023-07-02T10:39:01;93999.50;;;28.49;54.27
6393;BME280;3229;42.674;23.282;2023-07-02T10:41:29;94001.31;;;28.64;53.42
6393;BME280;3229;42.674;23.282;2023-07-02T10:44:06;93997.31;;;28.82;53.49
6393;BME280;3229;42.674;23.282;2023-07-02T10:46:34;93993.34;;;29.00;52.77
6393;BME280;3229;42.674;23.282;2023-07-02T10:49:00;93998.28;;;29.12;51.90
6393;BME280;3229;42.674;23.282;2023-07-02T10:51:28;93991.44;;;29.16;51.35
6393;BME280;3229;42.674;23.282;2023-07-02T10:53:58;93994.53;;;29.23;51.44
6393;BME280;3229;42.674;23.282;2023-07-02T10:56:26;93990.81;;;29.34;47.78
6393;BME280;3229;42.674;23.282;2023-07-02T10:58:53;93983.09;;;29.48;45.96
6393;BME280;3229;42.674;23.282;2023-07-02T11:01:28;93987.72;;;29.71;44.74
6393;BME280;3229;42.674;23.282;2023-07-02T11:03:57;93988.66;;;29.86;43.43
6393;BME280;3229;42.674;23.282;2023-07-02T11:06:25;93981.38;;;29.72;42.92
6393;BME280;3229;42.674;23.282;2023-07-02T11:08:52;93982.41;;;29.77;43.08
6393;BME280;3229;42.674;23.282;2023-07-02T11:11:20;93982.06;;;29.83;42.67
6393;BME280;3229;42.674;23.282;2023-07-02T11:13:48;93982.56;;;29.90;42.66
6393;BME280;3229;42.674;23.282;2023-07-02T11:16:19;93971.81;;;29.82;43.70
6393;BME280;3229;42.674;23.282;2023-07-02T11:18:49;93973.78;;;29.66;44.19
6393;BME280;3229;42.674;23.282;2023-07-02T11:21:16;93967.72;;;29.65;44.42
6393;BME280;3229;42.674;23.282;2023-07-02T11:23:43;93975.00;;;29.79;44.85
6393;BME280;3229;42.674;23.282;2023-07-02T11:26:09;93988.78;;;30.05;45.16
6393;BME280;3229;42.674;23.282;2023-07-02T11:28:48;94005.47;;;30.29;47.31
6393;BME280;3229;42.674;23.282;2023-07-02T11:31:24;94004.47;;;30.25;49.11
6393;BME280;3229;42.674;23.282;2023-07-02T11:33:52;94007.91;;;29.86;50.19
6393;BME280;3229;42.674;23.282;2023-07-02T11:36:20;94009.34;;;29.68;50.79
6393;BME280;3229;42.674;23.282;2023-07-02T11:38:48;94008.34;;;29.54;51.44
6393;BME280;3229;42.674;23.282;2023-07-02T11:41:15;94001.56;;;29.43;50.64
6393;BME280;3229;42.674;23.282;2023-07-02T11:43:42;93998.19;;;29.32;51.51
6393;BME280;3229;42.674;23.282;2023-07-02T11:46:09;94007.19;;;29.26;51.71
6393;BME280;3229;42.674;23.282;2023-07-02T11:48:36;94002.44;;;29.28;49.70
6393;BME280;3229;42.674;23.282;2023-07-02T11:51:04;94007.72;;;29.23;49.17
6393;BME280;3229;42.674;23.282;2023-07-02T11:53:31;94008.56;;;29.13;48.62
6393;BME280;3229;42.674;23.282;2023-07-02T11:55:57;94006.53;;;28.85;49.12
6393;BME280;3229;42.674;23.282;2023-07-02T11:58:24;94002.63;;;28.72;48.19
6393;BME280;3229;42.674;23.282;2023-07-02T12:00:51;94015.81;;;28.57;49.41
6393;BME280;3229;42.674;23.282;2023-07-02T12:03:18;94012.38;;;28.31;49.74
6393;BME280;3229;42.674;23.282;2023-07-02T12:05:44;94013.47;;;28.04;50.98
6393;BME280;3229;42.674;23.282;2023-07-02T12:08:13;94012.13;;;27.86;51.95
6393;BME280;3229;42.674;23.282;2023-07-02T12:10:40;94013.16;;;27.75;53.65
6393;BME280;3229;42.674;23.282;2023-07-02T12:13:07;94021.81;;;27.70;54.50
6393;BME280;3229;42.674;23.282;2023-07-02T12:15:34;94024.44;;;27.65;55.40
6393;BME280;3229;42.674;23.282;2023-07-02T12:18:01;94028.63;;;27.61;57.09
6393;BME280;3229;42.674;23.282;2023-07-02T12:20:27;94025.44;;;27.54;58.62
6393;BME280;3229;42.674;23.282;2023-07-02T12:22:54;94030.41;;;27.45;61.32
6393;BME280;3229;42.674;23.282;2023-07-02T12:25:22;94032.50;;;27.33;63.60
6393;BME280;3229;42.674;23.282;2023-07-02T12:27:49;94023.78;;;27.22;64.03
6393;BME280;3229;42.674;23.282;2023-07-02T12:30:16;94012.22;;;27.18;64.92
6393;BME280;3229;42.674;23.282;2023-07-02T12:32:44;94022.50;;;27.25;66.90
6393;BME280;3229;42.674;23.282;2023-07-02T12:35:12;94018.84;;;27.31;67.27
6393;BME280;3229;42.674;23.282;2023-07-02T12:37:44;94023.03;;;27.32;69.37
6393;BME280;3229;42.674;23.282;2023-07-02T12:40:12;94024.09;;;27.36;69.48
6393;BME280;3229;42.674;23.282;2023-07-02T12:42:41;94018.84;;;27.41;68.53
6393;BME280;3229;42.674;23.282;2023-07-02T12:45:09;94003.63;;;27.33;66.55
6393;BME280;3229;42.674;23.282;2023-07-02T12:47:36;94020.97;;;27.49;65.35
6393;BME280;3229;42.674;23.282;2023-07-02T12:50:04;94021.25;;;27.53;65.78
6393;BME280;3229;42.674;23.282;2023-07-02T12:52:33;94017.84;;;27.52;62.76
6393;BME280;3229;42.674;23.282;2023-07-02T12:55:01;93981.00;;;27.27;62.50
6393;BME280;3229;42.674;23.282;2023-07-02T12:57:28;94014.66;;;27.45;64.37
6393;BME280;3229;42.674;23.282;2023-07-02T12:59:56;94008.09;;;27.48;65.75
6393;BME280;3229;42.674;23.282;2023-07-02T13:02:24;93998.41;;;27.54;63.50
6393;BME280;3229;42.674;23.282;2023-07-02T13:04:50;93995.25;;;27.62;62.59
6393;BME280;3229;42.674;23.282;2023-07-02T13:07:17;93982.13;;;27.67;61.81
6393;BME280;3229;42.674;23.282;2023-07-02T13:09:44;94003.19;;;27.82;62.08
6393;BME280;3229;42.674;23.282;2023-07-02T13:12:11;94001.34;;;27.93;61.25